EIN1B EIKY-EGAA
Flight info
| Callsign | EIN1B |
|---|---|
| Flight time | 0h 36m |
| Altitude | 23000 |
| Route | SHA3D SHA DCT RINUS DCT TUGSI DCT DEGOS DCT LIRGU |
| Aircraft | A320/M-SDE3FGHIRWY/LB1 |
Departure
| Time | 2026-04-22 19:29 |
|---|---|
| Airport | Kerry Airport (EIKY) |
Arrival
| Time | 2026-04-22 20:05 |
|---|---|
| Airport | Belfast International Airport (EGAA) |
| Time | Latitude | Longitude | Altitude | Speed | Heading |
|---|---|---|---|---|---|
| 2026-04-22 18:54 | 52.18106 | -9.53582 | 92 ft | 0 kts | 328° |
| 2026-04-22 19:15 | 52.18104 | -9.53580 | 104 ft | 2 kts | 329° |
| 2026-04-22 19:15 | 52.18084 | -9.53574 | 103 ft | 2 kts | 358° |
| 2026-04-22 19:15 | 52.18069 | -9.53578 | 102 ft | 4 kts | 11° |
| 2026-04-22 19:15 | 52.18044 | -9.53585 | 103 ft | 2 kts | 21° |
| 2026-04-22 19:16 | 52.18023 | -9.53598 | 104 ft | 4 kts | 11° |
| 2026-04-22 19:16 | 52.18001 | -9.53597 | 103 ft | 4 kts | 313° |
| 2026-04-22 19:16 | 52.17996 | -9.53586 | 104 ft | 1 kts | 288° |
| 2026-04-22 19:21 | 52.17995 | -9.53596 | 104 ft | 2 kts | 259° |
| 2026-04-22 19:21 | 52.17983 | -9.53607 | 102 ft | 3 kts | 200° |
| 2026-04-22 19:22 | 52.17948 | -9.53599 | 102 ft | 2 kts | 163° |
| 2026-04-22 19:22 | 52.17928 | -9.53588 | 104 ft | 4 kts | 159° |
| 2026-04-22 19:22 | 52.17898 | -9.53568 | 104 ft | 5 kts | 158° |
| 2026-04-22 19:22 | 52.17885 | -9.53560 | 104 ft | 0 kts | 158° |
| 2026-04-22 19:25 | 52.17879 | -9.53557 | 106 ft | 4 kts | 161° |
| 2026-04-22 19:25 | 52.17822 | -9.53622 | 103 ft | 10 kts | 233° |
| 2026-04-22 19:25 | 52.17787 | -9.53713 | 103 ft | 9 kts | 256° |
| 2026-04-22 19:25 | 52.17810 | -9.53724 | 104 ft | 4 kts | 71° |
| 2026-04-22 19:26 | 52.17811 | -9.53717 | 105 ft | 0 kts | 71° |
| 2026-04-22 19:28 | 52.17812 | -9.53714 | 104 ft | 1 kts | 71° |
| 2026-04-22 19:28 | 52.17851 | -9.53508 | 105 ft | 52 kts | 72° |
| 2026-04-22 19:28 | 52.18038 | -9.52608 | 113 ft | 112 kts | 72° |
| 2026-04-22 19:29 | 52.18333 | -9.51317 | 517 ft | 120 kts | 77° |
| 2026-04-22 19:29 | 52.18608 | -9.50048 | 1193 ft | 118 kts | 83° |
| 2026-04-22 19:29 | 52.18868 | -9.48715 | 1666 ft | 133 kts | 83° |
| 2026-04-22 19:29 | 52.19167 | -9.47172 | 1962 ft | 153 kts | 84° |
| 2026-04-22 19:30 | 52.19390 | -9.46023 | 2134 ft | 168 kts | 83° |
| 2026-04-22 19:30 | 52.19905 | -9.43405 | 2517 ft | 195 kts | 83° |
| 2026-04-22 19:30 | 52.20350 | -9.41171 | 2884 ft | 220 kts | 82° |
| 2026-04-22 19:30 | 52.20852 | -9.38691 | 3461 ft | 236 kts | 81° |
| 2026-04-22 19:31 | 52.21587 | -9.36232 | 4282 ft | 252 kts | 60° |
| 2026-04-22 19:31 | 52.22964 | -9.34306 | 5125 ft | 270 kts | 39° |
| 2026-04-22 19:31 | 52.24582 | -9.32695 | 5945 ft | 275 kts | 38° |
| 2026-04-22 19:31 | 52.26262 | -9.31099 | 6784 ft | 283 kts | 36° |
| 2026-04-22 19:32 | 52.28001 | -9.29514 | 7570 ft | 290 kts | 34° |
| 2026-04-22 19:32 | 52.29780 | -9.27910 | 8375 ft | 295 kts | 34° |
| 2026-04-22 19:32 | 52.31588 | -9.26277 | 9218 ft | 298 kts | 33° |
| 2026-04-22 19:32 | 52.33411 | -9.24618 | 10067 ft | 302 kts | 32° |
| 2026-04-22 19:33 | 52.35251 | -9.22927 | 10839 ft | 305 kts | 32° |
| 2026-04-22 19:33 | 52.37102 | -9.21220 | 11635 ft | 306 kts | 32° |
| 2026-04-22 19:33 | 52.38957 | -9.19507 | 12448 ft | 306 kts | 31° |
| 2026-04-22 19:33 | 52.40816 | -9.17791 | 13282 ft | 307 kts | 31° |
| 2026-04-22 19:34 | 52.42647 | -9.16099 | 14138 ft | 305 kts | 32° |
| 2026-04-22 19:34 | 52.44491 | -9.14390 | 14905 ft | 303 kts | 32° |
| 2026-04-22 19:34 | 52.46342 | -9.12664 | 15401 ft | 315 kts | 32° |
| 2026-04-22 19:34 | 52.48312 | -9.10817 | 15573 ft | 338 kts | 31° |
| 2026-04-22 19:35 | 52.50426 | -9.08835 | 15713 ft | 361 kts | 31° |
| 2026-04-22 19:35 | 52.52674 | -9.06730 | 15844 ft | 383 kts | 31° |
| 2026-04-22 19:35 | 52.54231 | -9.05277 | 15988 ft | 394 kts | 31° |
| 2026-04-22 19:35 | 52.57460 | -9.02264 | 16692 ft | 403 kts | 31° |
| 2026-04-22 19:36 | 52.59897 | -8.99987 | 17408 ft | 403 kts | 30° |
| 2026-04-22 19:36 | 52.62338 | -8.97704 | 18077 ft | 405 kts | 30° |
| 2026-04-22 19:36 | 52.64799 | -8.95398 | 18675 ft | 408 kts | 30° |
| 2026-04-22 19:36 | 52.67275 | -8.93071 | 19212 ft | 412 kts | 30° |
| 2026-04-22 19:37 | 52.69779 | -8.90714 | 19654 ft | 418 kts | 30° |
| 2026-04-22 19:37 | 52.72284 | -8.88233 | 20155 ft | 421 kts | 36° |
| 2026-04-22 19:37 | 52.74621 | -8.85285 | 20684 ft | 424 kts | 39° |
| 2026-04-22 19:37 | 52.76948 | -8.82272 | 21210 ft | 427 kts | 39° |
| 2026-04-22 19:38 | 52.79295 | -8.79240 | 21733 ft | 429 kts | 39° |
| 2026-04-22 19:38 | 52.81657 | -8.76190 | 22244 ft | 432 kts | 39° |
| 2026-04-22 19:38 | 52.84031 | -8.73120 | 22755 ft | 435 kts | 39° |
| 2026-04-22 19:38 | 52.86419 | -8.70023 | 23148 ft | 438 kts | 39° |
| 2026-04-22 19:39 | 52.88802 | -8.66922 | 23231 ft | 430 kts | 40° |
| 2026-04-22 19:39 | 52.91129 | -8.63887 | 23239 ft | 423 kts | 40° |
| 2026-04-22 19:39 | 52.93404 | -8.60919 | 23219 ft | 420 kts | 39° |
| 2026-04-22 19:39 | 52.95700 | -8.57920 | 23249 ft | 421 kts | 38° |
| 2026-04-22 19:40 | 52.98006 | -8.54904 | 23240 ft | 422 kts | 39° |
| 2026-04-22 19:40 | 53.00310 | -8.51886 | 23247 ft | 422 kts | 39° |
| 2026-04-22 19:40 | 53.02611 | -8.48870 | 23250 ft | 422 kts | 39° |
| 2026-04-22 19:40 | 53.04914 | -8.45849 | 23248 ft | 422 kts | 39° |
| 2026-04-22 19:41 | 53.07218 | -8.42825 | 23247 ft | 422 kts | 39° |
| 2026-04-22 19:41 | 53.09518 | -8.39802 | 23251 ft | 422 kts | 39° |
| 2026-04-22 19:41 | 53.11815 | -8.36771 | 23251 ft | 422 kts | 39° |
| 2026-04-22 19:41 | 53.14118 | -8.33727 | 23251 ft | 422 kts | 39° |
| 2026-04-22 19:42 | 53.16414 | -8.30686 | 23261 ft | 422 kts | 39° |
| 2026-04-22 19:42 | 53.18711 | -8.27641 | 23261 ft | 422 kts | 39° |
| 2026-04-22 19:42 | 53.21002 | -8.24596 | 23259 ft | 422 kts | 39° |
| 2026-04-22 19:42 | 53.23301 | -8.21538 | 23262 ft | 422 kts | 39° |
| 2026-04-22 19:43 | 53.27881 | -8.15448 | 23280 ft | 420 kts | 38° |
| 2026-04-22 19:43 | 53.30170 | -8.12408 | 23285 ft | 420 kts | 38° |
| 2026-04-22 19:43 | 53.32452 | -8.09370 | 23286 ft | 419 kts | 38° |
| 2026-04-22 19:44 | 53.34733 | -8.06324 | 23290 ft | 419 kts | 38° |
| 2026-04-22 19:44 | 53.37009 | -8.03281 | 23292 ft | 419 kts | 38° |
| 2026-04-22 19:44 | 53.39282 | -8.00239 | 23292 ft | 418 kts | 38° |
| 2026-04-22 19:44 | 53.41554 | -7.97190 | 23289 ft | 418 kts | 38° |
| 2026-04-22 19:45 | 53.43821 | -7.94137 | 23287 ft | 418 kts | 38° |
| 2026-04-22 19:45 | 53.46089 | -7.91076 | 23287 ft | 418 kts | 38° |
| 2026-04-22 19:45 | 53.48357 | -7.88014 | 23295 ft | 418 kts | 39° |
| 2026-04-22 19:45 | 53.50597 | -7.84987 | 23291 ft | 419 kts | 39° |
| 2026-04-22 19:46 | 53.52868 | -7.81916 | 23281 ft | 419 kts | 39° |
| 2026-04-22 19:46 | 53.55138 | -7.78847 | 23277 ft | 419 kts | 39° |
| 2026-04-22 19:46 | 53.57404 | -7.75776 | 23276 ft | 416 kts | 39° |
| 2026-04-22 19:46 | 53.59644 | -7.72733 | 23291 ft | 413 kts | 39° |
| 2026-04-22 19:47 | 53.61872 | -7.69693 | 23290 ft | 411 kts | 39° |
| 2026-04-22 19:47 | 53.64092 | -7.66659 | 23299 ft | 411 kts | 39° |
| 2026-04-22 19:47 | 53.65595 | -7.64613 | 23247 ft | 408 kts | 39° |
| 2026-04-22 19:47 | 53.68539 | -7.60662 | 22476 ft | 407 kts | 39° |
| 2026-04-22 19:48 | 53.70757 | -7.57715 | 21959 ft | 405 kts | 39° |
| 2026-04-22 19:48 | 53.72966 | -7.54782 | 21434 ft | 403 kts | 39° |
| 2026-04-22 19:48 | 53.75167 | -7.51855 | 20962 ft | 401 kts | 39° |
| 2026-04-22 19:48 | 53.77349 | -7.48942 | 20526 ft | 398 kts | 39° |
| 2026-04-22 19:49 | 53.79515 | -7.46040 | 20075 ft | 396 kts | 39° |
| 2026-04-22 19:49 | 53.81661 | -7.43154 | 19645 ft | 393 kts | 39° |
| 2026-04-22 19:49 | 53.83796 | -7.40278 | 19215 ft | 391 kts | 39° |
| 2026-04-22 19:49 | 53.85918 | -7.37411 | 18791 ft | 389 kts | 40° |
| 2026-04-22 19:50 | 53.88030 | -7.34555 | 18317 ft | 387 kts | 40° |
| 2026-04-22 19:50 | 53.90128 | -7.31716 | 17836 ft | 385 kts | 40° |
| 2026-04-22 19:50 | 53.92218 | -7.28888 | 17363 ft | 383 kts | 40° |
| 2026-04-22 19:50 | 53.94295 | -7.26080 | 16898 ft | 381 kts | 40° |
| 2026-04-22 19:51 | 53.96367 | -7.23274 | 16427 ft | 379 kts | 40° |
| 2026-04-22 19:51 | 53.98422 | -7.20485 | 15985 ft | 377 kts | 40° |
| 2026-04-22 19:51 | 54.00466 | -7.17699 | 15539 ft | 375 kts | 41° |
| 2026-04-22 19:51 | 54.02468 | -7.14877 | 15107 ft | 372 kts | 42° |
| 2026-04-22 19:52 | 54.04427 | -7.12023 | 14677 ft | 370 kts | 44° |
| 2026-04-22 19:52 | 54.06372 | -7.09150 | 14248 ft | 368 kts | 44° |
| 2026-04-22 19:52 | 54.08296 | -7.06298 | 13782 ft | 366 kts | 44° |
| 2026-04-22 19:52 | 54.10203 | -7.03474 | 13394 ft | 361 kts | 44° |
| 2026-04-22 19:53 | 54.12086 | -7.00695 | 13018 ft | 355 kts | 44° |
| 2026-04-22 19:53 | 54.13944 | -6.97965 | 12670 ft | 350 kts | 44° |
| 2026-04-22 19:53 | 54.15161 | -6.96179 | 12434 ft | 347 kts | 44° |
| 2026-04-22 19:53 | 54.17568 | -6.92653 | 11942 ft | 331 kts | 44° |
| 2026-04-22 19:54 | 54.18705 | -6.90988 | 11727 ft | 320 kts | 45° |
| 2026-04-22 19:54 | 54.20902 | -6.87764 | 11235 ft | 308 kts | 45° |
| 2026-04-22 19:54 | 54.22520 | -6.85387 | 10884 ft | 304 kts | 45° |
| 2026-04-22 19:54 | 54.23598 | -6.83799 | 10668 ft | 302 kts | 45° |
| 2026-04-22 19:55 | 54.25161 | -6.81489 | 10324 ft | 300 kts | 46° |
| 2026-04-22 19:55 | 54.26754 | -6.79129 | 9960 ft | 298 kts | 45° |
| 2026-04-22 19:55 | 54.28289 | -6.76852 | 9599 ft | 295 kts | 46° |
| 2026-04-22 19:55 | 54.29837 | -6.74556 | 9234 ft | 293 kts | 45° |
| 2026-04-22 19:56 | 54.31373 | -6.72279 | 8847 ft | 291 kts | 45° |
| 2026-04-22 19:56 | 54.32898 | -6.70023 | 8498 ft | 286 kts | 45° |
| 2026-04-22 19:56 | 54.34368 | -6.67849 | 8142 ft | 273 kts | 45° |
| 2026-04-22 19:56 | 54.35771 | -6.65767 | 7780 ft | 261 kts | 46° |
| 2026-04-22 19:57 | 54.37116 | -6.63769 | 7437 ft | 251 kts | 46° |
| 2026-04-22 19:57 | 54.38408 | -6.61847 | 7108 ft | 241 kts | 46° |
| 2026-04-22 19:57 | 54.39653 | -6.59992 | 6759 ft | 234 kts | 46° |
| 2026-04-22 19:57 | 54.40869 | -6.58176 | 6393 ft | 231 kts | 46° |
| 2026-04-22 19:58 | 54.42076 | -6.56367 | 6039 ft | 230 kts | 46° |
| 2026-04-22 19:58 | 54.43275 | -6.54567 | 5677 ft | 228 kts | 46° |
| 2026-04-22 19:58 | 54.44469 | -6.52779 | 5319 ft | 227 kts | 46° |
| 2026-04-22 19:58 | 54.45652 | -6.51004 | 4970 ft | 225 kts | 46° |
| 2026-04-22 19:59 | 54.46826 | -6.49242 | 4600 ft | 223 kts | 47° |
| 2026-04-22 20:00 | 54.55358 | -6.47342 | 3130 ft | 248 kts | 338° |
| 2026-04-22 20:00 | 54.56977 | -6.48266 | 2796 ft | 233 kts | 7° |
| 2026-04-22 20:01 | 54.58370 | -6.47570 | 2558 ft | 196 kts | 46° |
| 2026-04-22 20:01 | 54.59160 | -6.45920 | 2490 ft | 169 kts | 72° |
| 2026-04-22 20:01 | 54.59653 | -6.44093 | 2501 ft | 166 kts | 73° |
| 2026-04-22 20:01 | 54.60145 | -6.42291 | 2503 ft | 165 kts | 73° |
| 2026-04-22 20:02 | 54.60633 | -6.40498 | 2372 ft | 165 kts | 73° |
| 2026-04-22 20:02 | 54.61105 | -6.38780 | 2141 ft | 151 kts | 73° |
| 2026-04-22 20:02 | 54.61544 | -6.37182 | 1922 ft | 145 kts | 72° |
| 2026-04-22 20:02 | 54.61955 | -6.35675 | 1749 ft | 130 kts | 73° |
| 2026-04-22 20:03 | 54.62324 | -6.34315 | 1565 ft | 123 kts | 72° |
| 2026-04-22 20:03 | 54.62679 | -6.32994 | 1405 ft | 120 kts | 72° |
| 2026-04-22 20:03 | 54.63032 | -6.31675 | 1259 ft | 122 kts | 70° |
| 2026-04-22 20:03 | 54.63387 | -6.30353 | 1086 ft | 123 kts | 71° |
| 2026-04-22 20:04 | 54.63746 | -6.29020 | 921 ft | 122 kts | 69° |
| 2026-04-22 20:04 | 54.64108 | -6.27694 | 788 ft | 123 kts | 67° |
| 2026-04-22 20:04 | 54.64468 | -6.26354 | 623 ft | 121 kts | 71° |
| 2026-04-22 20:04 | 54.64813 | -6.25026 | 475 ft | 121 kts | 65° |
| 2026-04-22 20:05 | 54.65184 | -6.23701 | 330 ft | 122 kts | 66° |
| 2026-04-22 20:05 | 54.65534 | -6.22388 | 276 ft | 113 kts | 68° |
| 2026-04-22 20:05 | 54.65770 | -6.21511 | 272 ft | 32 kts | 64° |
| 2026-04-22 20:05 | 54.65849 | -6.21339 | 272 ft | 16 kts | 11° |
| 2026-04-22 20:06 | 54.65904 | -6.21355 | 272 ft | 0 kts | 337° |
| 2026-04-22 20:07 | 54.65924 | -6.21370 | 276 ft | 5 kts | 336° |
| 2026-04-22 20:07 | 54.65953 | -6.21386 | 272 ft | 4 kts | 356° |
| 2026-04-22 20:07 | 54.65990 | -6.21354 | 273 ft | 10 kts | 48° |
| 2026-04-22 20:07 | 54.66025 | -6.21241 | 272 ft | 12 kts | 54° |
| 2026-04-22 20:08 | 54.66101 | -6.21242 | 276 ft | 12 kts | 336° |
| 2026-04-22 20:08 | 54.66154 | -6.21288 | 273 ft | 5 kts | 318° |
| 2026-04-22 20:08 | 54.66155 | -6.21338 | 272 ft | 4 kts | 256° |
| 2026-04-22 20:08 | 54.66147 | -6.21375 | 272 ft | 3 kts | 246° |
| 2026-04-22 20:09 | 54.66145 | -6.21384 | 272 ft | 1 kts | 245° |
| 2026-04-22 20:09 | 54.66142 | -6.21392 | 272 ft | 0 kts | 245° |
| 2026-04-22 20:13 | 54.66142 | -6.21393 | 272 ft | 0 kts | 245° |